sensor_id;sensor_type;location;lat;lon;timestamp;temperature;humidity
31729;DHT22;18309;43.658;1.312;2023-03-14T00:02:19;14.20;95.40
31729;DHT22;18309;43.658;1.312;2023-03-14T00:04:44;14.20;95.50
31729;DHT22;18309;43.658;1.312;2023-03-14T00:07:11;14.20;95.40
31729;DHT22;18309;43.658;1.312;2023-03-14T00:09:37;14.20;95.50
31729;DHT22;18309;43.658;1.312;2023-03-14T00:12:03;14.10;95.60
31729;DHT22;18309;43.658;1.312;2023-03-14T00:14:30;14.10;95.70
31729;DHT22;18309;43.658;1.312;2023-03-14T00:16:56;14.00;95.70
31729;DHT22;18309;43.658;1.312;2023-03-14T00:19:22;14.00;95.80
31729;DHT22;18309;43.658;1.312;2023-03-14T00:21:47;14.00;95.80
31729;DHT22;18309;43.658;1.312;2023-03-14T00:24:13;13.90;96.00
31729;DHT22;18309;43.658;1.312;2023-03-14T00:26:39;13.90;95.80
31729;DHT22;18309;43.658;1.312;2023-03-14T00:29:05;13.90;95.80
31729;DHT22;18309;43.658;1.312;2023-03-14T00:31:30;13.90;96.00
31729;DHT22;18309;43.658;1.312;2023-03-14T00:33:57;13.90;95.90
31729;DHT22;18309;43.658;1.312;2023-03-14T00:36:22;13.90;96.10
31729;DHT22;18309;43.658;1.312;2023-03-14T00:38:50;13.90;96.10
31729;DHT22;18309;43.658;1.312;2023-03-14T00:41:18;13.90;96.10
31729;DHT22;18309;43.658;1.312;2023-03-14T00:43:44;13.80;96.10
31729;DHT22;18309;43.658;1.312;2023-03-14T00:46:11;13.80;96.20
31729;DHT22;18309;43.658;1.312;2023-03-14T00:48:37;13.70;96.10
31729;DHT22;18309;43.658;1.312;2023-03-14T00:51:04;13.80;96.20
31729;DHT22;18309;43.658;1.312;2023-03-14T00:53:30;13.70;96.10
31729;DHT22;18309;43.658;1.312;2023-03-14T00:55:56;13.70;96.20
31729;DHT22;18309;43.658;1.312;2023-03-14T00:58:23;13.70;96.20
31729;DHT22;18309;43.658;1.312;2023-03-14T01:00:49;13.70;96.20
31729;DHT22;18309;43.658;1.312;2023-03-14T01:03:14;13.70;96.10
31729;DHT22;18309;43.658;1.312;2023-03-14T01:05:40;13.60;96.10
31729;DHT22;18309;43.658;1.312;2023-03-14T01:08:07;13.60;95.90
31729;DHT22;18309;43.658;1.312;2023-03-14T01:10:34;13.60;95.60
31729;DHT22;18309;43.658;1.312;2023-03-14T01:12:59;13.60;95.20
31729;DHT22;18309;43.658;1.312;2023-03-14T01:15:25;13.50;95.00
31729;DHT22;18309;43.658;1.312;2023-03-14T01:17:51;13.60;94.90
31729;DHT22;18309;43.658;1.312;2023-03-14T01:20:17;13.50;94.80
31729;DHT22;18309;43.658;1.312;2023-03-14T01:22:43;13.50;94.70
31729;DHT22;18309;43.658;1.312;2023-03-14T01:25:12;13.50;94.60
31729;DHT22;18309;43.658;1.312;2023-03-14T01:27:38;13.50;94.60
31729;DHT22;18309;43.658;1.312;2023-03-14T01:30:04;13.50;94.70
31729;DHT22;18309;43.658;1.312;2023-03-14T01:32:30;13.50;95.20
31729;DHT22;18309;43.658;1.312;2023-03-14T01:34:56;13.50;94.60
31729;DHT22;18309;43.658;1.312;2023-03-14T01:37:22;13.50;94.60
31729;DHT22;18309;43.658;1.312;2023-03-14T01:39:48;13.50;94.10
31729;DHT22;18309;43.658;1.312;2023-03-14T01:42:15;13.50;94.20
31729;DHT22;18309;43.658;1.312;2023-03-14T01:44:49;13.50;94.10
31729;DHT22;18309;43.658;1.312;2023-03-14T01:47:14;13.50;94.10
31729;DHT22;18309;43.658;1.312;2023-03-14T01:49:40;13.50;94.10
31729;DHT22;18309;43.658;1.312;2023-03-14T01:54:42;13.50;94.20
31729;DHT22;18309;43.658;1.312;2023-03-14T01:57:17;13.50;94.10
31729;DHT22;18309;43.658;1.312;2023-03-14T01:59:52;13.50;94.30
31729;DHT22;18309;43.658;1.312;2023-03-14T02:02:19;13.50;94.30
31729;DHT22;18309;43.658;1.312;2023-03-14T02:04:45;13.50;94.40
31729;DHT22;18309;43.658;1.312;2023-03-14T02:07:27;13.50;94.50
31729;DHT22;18309;43.658;1.312;2023-03-14T02:09:56;13.50;94.30
31729;DHT22;18309;43.658;1.312;2023-03-14T02:12:22;13.50;94.60
31729;DHT22;18309;43.658;1.312;2023-03-14T02:14:48;13.50;94.70
31729;DHT22;18309;43.658;1.312;2023-03-14T02:17:16;13.50;94.70
31729;DHT22;18309;43.658;1.312;2023-03-14T02:20:05;13.50;94.80
31729;DHT22;18309;43.658;1.312;2023-03-14T02:22:37;13.60;94.80
31729;DHT22;18309;43.658;1.312;2023-03-14T02:27:34;13.60;94.80
31729;DHT22;18309;43.658;1.312;2023-03-14T02:30:06;13.60;94.90
31729;DHT22;18309;43.658;1.312;2023-03-14T02:32:34;13.60;94.90
31729;DHT22;18309;43.658;1.312;2023-03-14T02:35:06;13.60;95.00
31729;DHT22;18309;43.658;1.312;2023-03-14T02:37:39;13.60;96.60
31729;DHT22;18309;43.658;1.312;2023-03-14T02:40:07;13.60;97.60
31729;DHT22;18309;43.658;1.312;2023-03-14T02:42:33;13.60;97.90
31729;DHT22;18309;43.658;1.312;2023-03-14T02:47:54;13.40;99.70
31729;DHT22;18309;43.658;1.312;2023-03-14T02:50:22;13.30;99.90
31729;DHT22;18309;43.658;1.312;2023-03-14T02:52:49;13.20;99.90
31729;DHT22;18309;43.658;1.312;2023-03-14T02:55:19;13.20;99.90
31729;DHT22;18309;43.658;1.312;2023-03-14T02:57:45;13.20;99.30
31729;DHT22;18309;43.658;1.312;2023-03-14T03:00:11;13.10;98.50
31729;DHT22;18309;43.658;1.312;2023-03-14T03:02:37;13.00;98.20
31729;DHT22;18309;43.658;1.312;2023-03-14T03:05:03;13.00;97.90
31729;DHT22;18309;43.658;1.312;2023-03-14T03:07:29;13.00;97.20
31729;DHT22;18309;43.658;1.312;2023-03-14T03:09:55;13.00;96.90
31729;DHT22;18309;43.658;1.312;2023-03-14T03:12:20;13.10;96.80
31729;DHT22;18309;43.658;1.312;2023-03-14T03:14:46;13.00;96.50
31729;DHT22;18309;43.658;1.312;2023-03-14T03:17:11;13.00;95.80
31729;DHT22;18309;43.658;1.312;2023-03-14T03:19:37;13.00;96.30
31729;DHT22;18309;43.658;1.312;2023-03-14T03:22:03;13.00;95.50
31729;DHT22;18309;43.658;1.312;2023-03-14T03:24:28;12.90;95.70
31729;DHT22;18309;43.658;1.312;2023-03-14T03:26:54;12.90;95.80
31729;DHT22;18309;43.658;1.312;2023-03-14T03:29:20;12.90;96.30
31729;DHT22;18309;43.658;1.312;2023-03-14T03:31:46;12.90;96.60
31729;DHT22;18309;43.658;1.312;2023-03-14T03:34:13;12.90;96.70
31729;DHT22;18309;43.658;1.312;2023-03-14T03:36:38;12.90;97.30
31729;DHT22;18309;43.658;1.312;2023-03-14T03:39:04;12.80;97.80
31729;DHT22;18309;43.658;1.312;2023-03-14T03:41:30;12.80;98.30
31729;DHT22;18309;43.658;1.312;2023-03-14T03:43:56;12.80;98.60
31729;DHT22;18309;43.658;1.312;2023-03-14T03:46:22;12.70;99.00
31729;DHT22;18309;43.658;1.312;2023-03-14T03:48:48;12.70;99.40
31729;DHT22;18309;43.658;1.312;2023-03-14T03:51:15;12.60;99.80
31729;DHT22;18309;43.658;1.312;2023-03-14T03:53:41;12.50;99.90
31729;DHT22;18309;43.658;1.312;2023-03-14T03:56:08;12.50;99.90
31729;DHT22;18309;43.658;1.312;2023-03-14T03:58:34;12.50;99.90
31729;DHT22;18309;43.658;1.312;2023-03-14T04:00:59;12.40;99.90
31729;DHT22;18309;43.658;1.312;2023-03-14T04:03:25;12.40;99.90
31729;DHT22;18309;43.658;1.312;2023-03-14T04:06:02;12.40;99.90
31729;DHT22;18309;43.658;1.312;2023-03-14T04:08:28;12.40;99.90
31729;DHT22;18309;43.658;1.312;2023-03-14T04:11:00;12.30;99.90
31729;DHT22;18309;43.658;1.312;2023-03-14T04:13:26;12.30;99.90
31729;DHT22;18309;43.658;1.312;2023-03-14T04:15:53;12.30;99.90
31729;DHT22;18309;43.658;1.312;2023-03-14T04:18:19;12.30;99.90
31729;DHT22;18309;43.658;1.312;2023-03-14T04:20:45;12.20;99.90
31729;DHT22;18309;43.658;1.312;2023-03-14T04:23:11;12.20;99.90
31729;DHT22;18309;43.658;1.312;2023-03-14T04:25:36;12.30;99.90
31729;DHT22;18309;43.658;1.312;2023-03-14T04:28:02;12.20;99.90
31729;DHT22;18309;43.658;1.312;2023-03-14T04:30:29;12.20;99.90
31729;DHT22;18309;43.658;1.312;2023-03-14T04:32:55;12.20;99.90
31729;DHT22;18309;43.658;1.312;2023-03-14T04:35:21;12.10;99.90
31729;DHT22;18309;43.658;1.312;2023-03-14T04:37:46;12.10;99.90
31729;DHT22;18309;43.658;1.312;2023-03-14T04:40:15;12.10;99.90
31729;DHT22;18309;43.658;1.312;2023-03-14T04:42:40;12.20;99.90
31729;DHT22;18309;43.658;1.312;2023-03-14T04:45:07;12.20;99.90
31729;DHT22;18309;43.658;1.312;2023-03-14T04:47:33;12.20;99.90
31729;DHT22;18309;43.658;1.312;2023-03-14T04:49:58;12.20;99.90
31729;DHT22;18309;43.658;1.312;2023-03-14T04:52:24;12.20;99.90
31729;DHT22;18309;43.658;1.312;2023-03-14T04:54:50;12.20;99.90
31729;DHT22;18309;43.658;1.312;2023-03-14T04:57:15;12.20;99.90
31729;DHT22;18309;43.658;1.312;2023-03-14T04:59:41;12.20;99.90
31729;DHT22;18309;43.658;1.312;2023-03-14T05:02:06;12.20;99.90
31729;DHT22;18309;43.658;1.312;2023-03-14T05:04:32;12.10;99.90
31729;DHT22;18309;43.658;1.312;2023-03-14T05:06:59;12.20;99.90
31729;DHT22;18309;43.658;1.312;2023-03-14T05:09:25;12.10;99.90
31729;DHT22;18309;43.658;1.312;2023-03-14T05:11:51;12.10;99.90
31729;DHT22;18309;43.658;1.312;2023-03-14T05:14:16;12.20;99.90
31729;DHT22;18309;43.658;1.312;2023-03-14T05:16:42;12.20;99.90
31729;DHT22;18309;43.658;1.312;2023-03-14T05:19:08;12.10;99.90
31729;DHT22;18309;43.658;1.312;2023-03-14T05:21:34;12.10;99.90
31729;DHT22;18309;43.658;1.312;2023-03-14T05:23:59;12.20;99.90
31729;DHT22;18309;43.658;1.312;2023-03-14T05:26:25;12.10;99.90
31729;DHT22;18309;43.658;1.312;2023-03-14T05:28:50;12.10;99.90
31729;DHT22;18309;43.658;1.312;2023-03-14T05:31:16;12.10;99.90
31729;DHT22;18309;43.658;1.312;2023-03-14T05:33:42;12.20;99.90
31729;DHT22;18309;43.658;1.312;2023-03-14T05:36:08;12.10;99.90
31729;DHT22;18309;43.658;1.312;2023-03-14T05:38:34;12.10;99.90
31729;DHT22;18309;43.658;1.312;2023-03-14T05:40:59;12.20;99.90
31729;DHT22;18309;43.658;1.312;2023-03-14T05:43:25;12.20;99.90
31729;DHT22;18309;43.658;1.312;2023-03-14T05:45:51;12.20;99.90
31729;DHT22;18309;43.658;1.312;2023-03-14T05:48:16;12.20;99.90
31729;DHT22;18309;43.658;1.312;2023-03-14T05:50:42;12.20;99.90
31729;DHT22;18309;43.658;1.312;2023-03-14T05:53:08;12.30;99.90
31729;DHT22;18309;43.658;1.312;2023-03-14T05:55:33;12.30;99.90
31729;DHT22;18309;43.658;1.312;2023-03-14T05:57:59;12.30;99.90
31729;DHT22;18309;43.658;1.312;2023-03-14T06:00:25;12.30;99.90
31729;DHT22;18309;43.658;1.312;2023-03-14T06:02:51;12.30;99.90
31729;DHT22;18309;43.658;1.312;2023-03-14T06:05:16;12.20;99.90
31729;DHT22;18309;43.658;1.312;2023-03-14T06:07:42;12.20;99.90
31729;DHT22;18309;43.658;1.312;2023-03-14T06:10:08;12.20;99.90
31729;DHT22;18309;43.658;1.312;2023-03-14T06:12:34;12.20;99.90
31729;DHT22;18309;43.658;1.312;2023-03-14T06:15:00;12.10;99.90
31729;DHT22;18309;43.658;1.312;2023-03-14T06:17:25;12.10;99.90
31729;DHT22;18309;43.658;1.312;2023-03-14T06:19:51;12.10;99.90
31729;DHT22;18309;43.658;1.312;2023-03-14T06:22:17;12.10;99.90
31729;DHT22;18309;43.658;1.312;2023-03-14T06:24:42;12.10;99.90
31729;DHT22;18309;43.658;1.312;2023-03-14T06:27:08;12.10;99.90
31729;DHT22;18309;43.658;1.312;2023-03-14T06:29:34;12.10;99.90
31729;DHT22;18309;43.658;1.312;2023-03-14T06:31:59;12.10;99.90
31729;DHT22;18309;43.658;1.312;2023-03-14T06:34:25;12.10;99.90
31729;DHT22;18309;43.658;1.312;2023-03-14T06:36:51;12.10;99.90
31729;DHT22;18309;43.658;1.312;2023-03-14T06:39:16;12.10;99.90
31729;DHT22;18309;43.658;1.312;2023-03-14T06:41:42;12.00;99.90
31729;DHT22;18309;43.658;1.312;2023-03-14T06:44:07;12.00;99.90
31729;DHT22;18309;43.658;1.312;2023-03-14T06:46:33;12.00;99.90
31729;DHT22;18309;43.658;1.312;2023-03-14T06:48:59;11.90;99.90
31729;DHT22;18309;43.658;1.312;2023-03-14T06:51:24;12.00;99.90
31729;DHT22;18309;43.658;1.312;2023-03-14T06:53:50;12.00;99.90
31729;DHT22;18309;43.658;1.312;2023-03-14T06:56:16;12.00;99.90
31729;DHT22;18309;43.658;1.312;2023-03-14T06:58:41;11.90;99.90
31729;DHT22;18309;43.658;1.312;2023-03-14T07:01:23;11.90;99.90
31729;DHT22;18309;43.658;1.312;2023-03-14T07:03:49;11.90;99.90
31729;DHT22;18309;43.658;1.312;2023-03-14T07:06:15;12.00;99.90
31729;DHT22;18309;43.658;1.312;2023-03-14T07:08:41;11.90;99.90
31729;DHT22;18309;43.658;1.312;2023-03-14T07:11:07;11.90;99.90
31729;DHT22;18309;43.658;1.312;2023-03-14T07:13:33;11.90;99.90
31729;DHT22;18309;43.658;1.312;2023-03-14T07:15:58;11.90;99.90
31729;DHT22;18309;43.658;1.312;2023-03-14T07:18:24;11.90;99.90
31729;DHT22;18309;43.658;1.312;2023-03-14T07:20:50;11.90;99.90
31729;DHT22;18309;43.658;1.312;2023-03-14T07:23:15;11.90;99.90
31729;DHT22;18309;43.658;1.312;2023-03-14T07:25:41;11.90;99.90
31729;DHT22;18309;43.658;1.312;2023-03-14T07:28:07;11.90;99.90
31729;DHT22;18309;43.658;1.312;2023-03-14T07:30:32;11.90;99.90
31729;DHT22;18309;43.658;1.312;2023-03-14T07:32:58;11.90;99.90
31729;DHT22;18309;43.658;1.312;2023-03-14T07:35:23;11.90;99.90
31729;DHT22;18309;43.658;1.312;2023-03-14T07:37:49;11.90;99.90
31729;DHT22;18309;43.658;1.312;2023-03-14T07:40:15;11.90;99.90
31729;DHT22;18309;43.658;1.312;2023-03-14T07:42:42;11.90;99.90
31729;DHT22;18309;43.658;1.312;2023-03-14T07:45:09;12.30;99.90
31729;DHT22;18309;43.658;1.312;2023-03-14T07:47:35;12.60;99.90
31729;DHT22;18309;43.658;1.312;2023-03-14T07:50:02;12.80;99.90
31729;DHT22;18309;43.658;1.312;2023-03-14T07:52:27;12.80;99.90
31729;DHT22;18309;43.658;1.312;2023-03-14T07:54:53;13.00;99.90
31729;DHT22;18309;43.658;1.312;2023-03-14T07:57:19;13.10;99.90
31729;DHT22;18309;43.658;1.312;2023-03-14T07:59:44;13.30;99.90
31729;DHT22;18309;43.658;1.312;2023-03-14T08:02:11;13.30;99.90
31729;DHT22;18309;43.658;1.312;2023-03-14T08:04:38;13.40;99.90
31729;DHT22;18309;43.658;1.312;2023-03-14T08:07:04;13.10;99.90
31729;DHT22;18309;43.658;1.312;2023-03-14T08:09:30;12.80;99.90
31729;DHT22;18309;43.658;1.312;2023-03-14T08:11:55;12.80;99.90
31729;DHT22;18309;43.658;1.312;2023-03-14T08:14:21;13.00;99.90
31729;DHT22;18309;43.658;1.312;2023-03-14T08:16:49;13.10;99.90
31729;DHT22;18309;43.658;1.312;2023-03-14T08:19:15;13.20;99.90
31729;DHT22;18309;43.658;1.312;2023-03-14T08:21:41;13.30;99.90
31729;DHT22;18309;43.658;1.312;2023-03-14T08:24:07;13.40;99.90
31729;DHT22;18309;43.658;1.312;2023-03-14T08:26:33;13.50;99.90
31729;DHT22;18309;43.658;1.312;2023-03-14T08:28:59;13.40;99.90
31729;DHT22;18309;43.658;1.312;2023-03-14T08:31:24;13.30;99.90
31729;DHT22;18309;43.658;1.312;2023-03-14T08:33:50;13.20;99.90
31729;DHT22;18309;43.658;1.312;2023-03-14T08:36:18;13.10;99.90
31729;DHT22;18309;43.658;1.312;2023-03-14T08:38:44;13.00;99.90
31729;DHT22;18309;43.658;1.312;2023-03-14T08:41:10;13.00;99.90
31729;DHT22;18309;43.658;1.312;2023-03-14T08:43:36;13.00;99.90
31729;DHT22;18309;43.658;1.312;2023-03-14T08:46:02;12.90;99.90
31729;DHT22;18309;43.658;1.312;2023-03-14T08:48:28;12.90;99.90
31729;DHT22;18309;43.658;1.312;2023-03-14T08:51:06;12.90;99.90
31729;DHT22;18309;43.658;1.312;2023-03-14T08:53:32;12.90;99.90
31729;DHT22;18309;43.658;1.312;2023-03-14T08:55:57;12.90;99.90
31729;DHT22;18309;43.658;1.312;2023-03-14T08:58:23;12.90;99.90
31729;DHT22;18309;43.658;1.312;2023-03-14T09:00:49;12.90;99.90
31729;DHT22;18309;43.658;1.312;2023-03-14T09:03:15;12.90;99.90
31729;DHT22;18309;43.658;1.312;2023-03-14T09:05:41;12.90;99.90
31729;DHT22;18309;43.658;1.312;2023-03-14T09:08:06;12.80;99.90
31729;DHT22;18309;43.658;1.312;2023-03-14T09:10:32;12.80;99.90
31729;DHT22;18309;43.658;1.312;2023-03-14T09:12:58;12.80;99.90
31729;DHT22;18309;43.658;1.312;2023-03-14T09:15:24;12.70;99.90
31729;DHT22;18309;43.658;1.312;2023-03-14T09:17:49;12.60;99.90
31729;DHT22;18309;43.658;1.312;2023-03-14T09:20:15;12.50;99.90
31729;DHT22;18309;43.658;1.312;2023-03-14T09:22:41;12.40;99.90
31729;DHT22;18309;43.658;1.312;2023-03-14T09:25:07;12.40;99.90
31729;DHT22;18309;43.658;1.312;2023-03-14T09:27:33;12.30;99.90
31729;DHT22;18309;43.658;1.312;2023-03-14T09:29:59;12.20;99.90
31729;DHT22;18309;43.658;1.312;2023-03-14T09:32:25;12.10;99.90
31729;DHT22;18309;43.658;1.312;2023-03-14T09:34:50;12.10;99.90
31729;DHT22;18309;43.658;1.312;2023-03-14T09:37:16;12.10;99.90
31729;DHT22;18309;43.658;1.312;2023-03-14T09:39:42;12.00;99.90
31729;DHT22;18309;43.658;1.312;2023-03-14T09:42:14;12.00;99.90
31729;DHT22;18309;43.658;1.312;2023-03-14T09:47:19;12.10;99.90
31729;DHT22;18309;43.658;1.312;2023-03-14T09:49:45;12.20;99.90
31729;DHT22;18309;43.658;1.312;2023-03-14T09:52:38;12.20;99.90
31729;DHT22;18309;43.658;1.312;2023-03-14T09:55:05;12.10;99.90
31729;DHT22;18309;43.658;1.312;2023-03-14T09:57:33;12.20;99.90
31729;DHT22;18309;43.658;1.312;2023-03-14T10:00:04;12.20;99.90
31729;DHT22;18309;43.658;1.312;2023-03-14T10:02:40;12.20;99.90
31729;DHT22;18309;43.658;1.312;2023-03-14T10:05:18;12.10;99.90
31729;DHT22;18309;43.658;1.312;2023-03-14T10:07:44;12.20;99.90
31729;DHT22;18309;43.658;1.312;2023-03-14T10:10:19;12.20;99.90
31729;DHT22;18309;43.658;1.312;2023-03-14T10:12:47;12.30;99.90
31729;DHT22;18309;43.658;1.312;2023-03-14T10:15:15;12.30;99.90
31729;DHT22;18309;43.658;1.312;2023-03-14T10:17:49;12.20;99.90
31729;DHT22;18309;43.658;1.312;2023-03-14T10:23:24;12.30;99.90
31729;DHT22;18309;43.658;1.312;2023-03-14T10:26:02;12.40;99.90
31729;DHT22;18309;43.658;1.312;2023-03-14T10:28:31;12.40;99.90
31729;DHT22;18309;43.658;1.312;2023-03-14T10:30:59;12.40;99.90
31729;DHT22;18309;43.658;1.312;2023-03-14T10:33:33;12.40;99.90
31729;DHT22;18309;43.658;1.312;2023-03-14T10:36:01;12.50;99.90
31729;DHT22;18309;43.658;1.312;2023-03-14T10:38:33;12.50;99.90
31729;DHT22;18309;43.658;1.312;2023-03-14T10:41:00;12.50;99.90
31729;DHT22;18309;43.658;1.312;2023-03-14T10:43:33;12.60;99.90
31729;DHT22;18309;43.658;1.312;2023-03-14T10:48:33;12.60;99.90
31729;DHT22;18309;43.658;1.312;2023-03-14T10:56:04;12.60;99.90
31729;DHT22;18309;43.658;1.312;2023-03-14T10:58:35;12.50;99.90
31729;DHT22;18309;43.658;1.312;2023-03-14T11:07:10;12.20;99.90
31729;DHT22;18309;43.658;1.312;2023-03-14T11:10:24;12.20;99.90
31729;DHT22;18309;43.658;1.312;2023-03-14T11:18:27;12.20;99.90
31729;DHT22;18309;43.658;1.312;2023-03-14T11:21:08;12.20;99.90
31729;DHT22;18309;43.658;1.312;2023-03-14T11:29:41;12.20;99.90
31729;DHT22;18309;43.658;1.312;2023-03-14T11:32:14;12.10;99.90
31729;DHT22;18309;43.658;1.312;2023-03-14T11:34:52;12.10;99.90
31729;DHT22;18309;43.658;1.312;2023-03-14T11:37:23;12.10;99.90
31729;DHT22;18309;43.658;1.312;2023-03-14T11:40:22;12.00;99.90
31729;DHT22;18309;43.658;1.312;2023-03-14T11:45:31;12.10;99.90
31729;DHT22;18309;43.658;1.312;2023-03-14T11:50:36;12.00;99.90
31729;DHT22;18309;43.658;1.312;2023-03-14T11:55:38;11.90;99.90
31729;DHT22;18309;43.658;1.312;2023-03-14T11:58:27;12.00;99.90
31729;DHT22;18309;43.658;1.312;2023-03-14T12:00:55;12.00;99.90
31729;DHT22;18309;43.658;1.312;2023-03-14T12:03:45;11.90;99.90
31729;DHT22;18309;43.658;1.312;2023-03-14T12:06:25;11.90;99.90
31729;DHT22;18309;43.658;1.312;2023-03-14T12:08:58;12.00;99.90
31729;DHT22;18309;43.658;1.312;2023-03-14T12:11:54;12.00;99.90
31729;DHT22;18309;43.658;1.312;2023-03-14T12:14:31;12.00;99.90
31729;DHT22;18309;43.658;1.312;2023-03-14T12:19:32;12.10;99.90
31729;DHT22;18309;43.658;1.312;2023-03-14T12:22:08;12.00;99.90
31729;DHT22;18309;43.658;1.312;2023-03-14T12:24:38;12.00;99.90
31729;DHT22;18309;43.658;1.312;2023-03-14T12:27:13;12.10;99.90
31729;DHT22;18309;43.658;1.312;2023-03-14T12:30:00;12.10;99.90
31729;DHT22;18309;43.658;1.312;2023-03-14T12:32:26;12.20;99.90
31729;DHT22;18309;43.658;1.312;2023-03-14T12:34:52;12.20;99.90
31729;DHT22;18309;43.658;1.312;2023-03-14T12:37:34;12.20;99.90
31729;DHT22;18309;43.658;1.312;2023-03-14T12:40:13;12.30;99.90
31729;DHT22;18309;43.658;1.312;2023-03-14T12:43:03;12.30;99.90
31729;DHT22;18309;43.658;1.312;2023-03-14T12:45:33;12.30;99.90
31729;DHT22;18309;43.658;1.312;2023-03-14T12:48:02;12.40;99.90
31729;DHT22;18309;43.658;1.312;2023-03-14T12:50:35;12.40;99.90
31729;DHT22;18309;43.658;1.312;2023-03-14T12:56:08;12.50;99.90
31729;DHT22;18309;43.658;1.312;2023-03-14T13:01:06;12.50;99.90
31729;DHT22;18309;43.658;1.312;2023-03-14T13:03:46;12.60;99.90
31729;DHT22;18309;43.658;1.312;2023-03-14T13:06:12;12.60;99.90
31729;DHT22;18309;43.658;1.312;2023-03-14T13:08:43;12.70;99.90
31729;DHT22;18309;43.658;1.312;2023-03-14T13:11:15;12.70;99.90
31729;DHT22;18309;43.658;1.312;2023-03-14T13:13:45;12.80;99.90
31729;DHT22;18309;43.658;1.312;2023-03-14T13:16:17;12.90;99.90
31729;DHT22;18309;43.658;1.312;2023-03-14T13:18:44;12.90;99.90
31729;DHT22;18309;43.658;1.312;2023-03-14T13:23:39;13.20;99.90
31729;DHT22;18309;43.658;1.312;2023-03-14T13:26:14;13.20;99.90
31729;DHT22;18309;43.658;1.312;2023-03-14T13:28:41;13.30;99.90
31729;DHT22;18309;43.658;1.312;2023-03-14T13:31:24;13.40;99.90
31729;DHT22;18309;43.658;1.312;2023-03-14T13:34:01;13.40;99.90
31729;DHT22;18309;43.658;1.312;2023-03-14T13:36:27;13.40;99.90
31729;DHT22;18309;43.658;1.312;2023-03-14T13:38:58;13.30;99.90
31729;DHT22;18309;43.658;1.312;2023-03-14T13:41:24;13.20;99.90
31729;DHT22;18309;43.658;1.312;2023-03-14T13:43:51;13.10;99.90
31729;DHT22;18309;43.658;1.312;2023-03-14T13:46:23;13.10;99.90
31729;DHT22;18309;43.658;1.312;2023-03-14T13:48:59;13.10;99.90
31729;DHT22;18309;43.658;1.312;2023-03-14T13:51:26;13.10;99.90
31729;DHT22;18309;43.658;1.312;2023-03-14T13:53:57;13.10;99.90
31729;DHT22;18309;43.658;1.312;2023-03-14T13:56:26;13.00;99.90
31729;DHT22;18309;43.658;1.312;2023-03-14T13:58:52;13.00;99.90
31729;DHT22;18309;43.658;1.312;2023-03-14T14:01:20;12.90;99.90
31729;DHT22;18309;43.658;1.312;2023-03-14T14:03:50;12.90;99.90
31729;DHT22;18309;43.658;1.312;2023-03-14T14:06:35;12.90;99.90
31729;DHT22;18309;43.658;1.312;2023-03-14T14:09:10;12.90;99.90
31729;DHT22;18309;43.658;1.312;2023-03-14T14:11:46;12.90;99.90
31729;DHT22;18309;43.658;1.312;2023-03-14T14:16:46;13.00;99.90
31729;DHT22;18309;43.658;1.312;2023-03-14T14:19:13;13.10;99.90
31729;DHT22;18309;43.658;1.312;2023-03-14T14:21:40;13.20;99.90
31729;DHT22;18309;43.658;1.312;2023-03-14T14:24:11;13.20;99.90
31729;DHT22;18309;43.658;1.312;2023-03-14T14:26:41;13.30;99.90
31729;DHT22;18309;43.658;1.312;2023-03-14T14:29:25;13.30;99.90
31729;DHT22;18309;43.658;1.312;2023-03-14T14:32:02;13.40;99.90
31729;DHT22;18309;43.658;1.312;2023-03-14T14:34:29;13.40;99.90
31729;DHT22;18309;43.658;1.312;2023-03-14T14:36:55;13.50;99.90
31729;DHT22;18309;43.658;1.312;2023-03-14T14:39:24;13.50;99.90
31729;DHT22;18309;43.658;1.312;2023-03-14T14:41:51;13.50;99.90
31729;DHT22;18309;43.658;1.312;2023-03-14T14:44:37;13.50;99.90
31729;DHT22;18309;43.658;1.312;2023-03-14T14:47:04;13.50;99.90
31729;DHT22;18309;43.658;1.312;2023-03-14T14:49:31;13.50;99.90
31729;DHT22;18309;43.658;1.312;2023-03-14T14:52:03;13.40;99.90
31729;DHT22;18309;43.658;1.312;2023-03-14T14:54:38;13.30;99.90
31729;DHT22;18309;43.658;1.312;2023-03-14T14:57:15;13.20;99.90
31729;DHT22;18309;43.658;1.312;2023-03-14T14:59:42;13.20;99.90
31729;DHT22;18309;43.658;1.312;2023-03-14T15:02:38;13.20;99.90
31729;DHT22;18309;43.658;1.312;2023-03-14T15:05:17;13.10;99.90
31729;DHT22;18309;43.658;1.312;2023-03-14T15:07:43;13.10;99.90
31729;DHT22;18309;43.658;1.312;2023-03-14T15:10:15;13.10;99.90
31729;DHT22;18309;43.658;1.312;2023-03-14T15:12:41;13.10;99.90
31729;DHT22;18309;43.658;1.312;2023-03-14T15:15:08;13.10;99.90
31729;DHT22;18309;43.658;1.312;2023-03-14T15:17:34;13.10;99.90
31729;DHT22;18309;43.658;1.312;2023-03-14T15:20:05;13.10;99.90
31729;DHT22;18309;43.658;1.312;2023-03-14T15:22:31;13.10;99.90
31729;DHT22;18309;43.658;1.312;2023-03-14T15:24:57;13.10;99.90
31729;DHT22;18309;43.658;1.312;2023-03-14T15:27:23;13.10;99.90
31729;DHT22;18309;43.658;1.312;2023-03-14T15:29:48;13.20;99.90
31729;DHT22;18309;43.658;1.312;2023-03-14T15:32:16;13.20;99.90
31729;DHT22;18309;43.658;1.312;2023-03-14T15:34:42;13.30;99.90
31729;DHT22;18309;43.658;1.312;2023-03-14T15:37:12;13.30;99.90
31729;DHT22;18309;43.658;1.312;2023-03-14T15:39:39;13.40;99.90
31729;DHT22;18309;43.658;1.312;2023-03-14T15:42:05;13.50;99.90
31729;DHT22;18309;43.658;1.312;2023-03-14T15:44:30;13.60;99.90
31729;DHT22;18309;43.658;1.312;2023-03-14T15:46:56;13.70;99.90
31729;DHT22;18309;43.658;1.312;2023-03-14T15:49:22;13.80;99.90
31729;DHT22;18309;43.658;1.312;2023-03-14T15:51:47;13.90;99.90
31729;DHT22;18309;43.658;1.312;2023-03-14T15:54:14;14.10;99.90
31729;DHT22;18309;43.658;1.312;2023-03-14T15:56:40;14.20;99.90
31729;DHT22;18309;43.658;1.312;2023-03-14T15:59:05;14.30;99.90
31729;DHT22;18309;43.658;1.312;2023-03-14T16:01:31;14.50;99.90
31729;DHT22;18309;43.658;1.312;2023-03-14T16:03:57;14.60;99.90
31729;DHT22;18309;43.658;1.312;2023-03-14T16:06:22;14.70;99.90
31729;DHT22;18309;43.658;1.312;2023-03-14T16:08:48;14.80;99.90
31729;DHT22;18309;43.658;1.312;2023-03-14T16:11:14;14.90;99.90
31729;DHT22;18309;43.658;1.312;2023-03-14T16:13:43;15.00;99.90
31729;DHT22;18309;43.658;1.312;2023-03-14T16:16:09;15.10;99.90
31729;DHT22;18309;43.658;1.312;2023-03-14T16:18:38;15.10;99.90
31729;DHT22;18309;43.658;1.312;2023-03-14T16:21:16;15.10;99.90
31729;DHT22;18309;43.658;1.312;2023-03-14T16:23:41;15.10;99.90
31729;DHT22;18309;43.658;1.312;2023-03-14T16:26:09;15.10;99.90
31729;DHT22;18309;43.658;1.312;2023-03-14T16:28:36;15.10;99.90
31729;DHT22;18309;43.658;1.312;2023-03-14T16:31:03;15.10;99.90
31729;DHT22;18309;43.658;1.312;2023-03-14T16:33:31;15.10;99.90
31729;DHT22;18309;43.658;1.312;2023-03-14T16:35:58;15.10;99.90
31729;DHT22;18309;43.658;1.312;2023-03-14T16:38:26;15.00;99.90